ADDS METAR Data INFO
IDs: Format: Raw Decoded Include TAF

Data at: 0902 UTC 20 Oct 2017

KDLP 191915Z AUTO 10018KT 9SM BKN030 BKN040 BKN050 29/22 A3011 RMK A01
KDLP 191855Z AUTO 10016KT 9SM FEW029 SCT038 SCT050 29/22 A3011 RMK A01
KDLP 191835Z AUTO 10015KT 9SM FEW029 FEW040 FEW050 29/22 A3012 RMK A01
KDLP 191815Z AUTO 09017KT 8SM FEW030 28/22 A3013 RMK A01
KDLP 191755Z AUTO 09016KT 8SM CLR 27/23 A3013 RMK A01
KDLP 191735Z AUTO 08019KT 9SM CLR 27/23 A3014 RMK A01
KDLP 191715Z AUTO 08016KT 8SM CLR 27/23 A3015 RMK A01
KDLP 191655Z AUTO 08017KT 9SM CLR 27/22 A3016 RMK A01
KDLP 191635Z AUTO 08015KT 9SM CLR 27/23 A3016 RMK A01
KDLP 191615Z AUTO 08014KT 9SM CLR 27/22 A3016 RMK A01
KDLP 191555Z AUTO 08014KT 9SM CLR 27/22 A3016 RMK A01
KDLP 191535Z AUTO 08013KT 9SM CLR 27/22 A3016 RMK A01
KDLP 191515Z AUTO 08013KT 9SM CLR 27/22 A3016 RMK A01
KDLP 191455Z AUTO 08012KT 9SM FEW044 27/22 A3016 RMK A01
KDLP 191435Z AUTO 07010KT 9SM CLR 26/23 A3015 RMK A01
KDLP 191415Z AUTO 07009KT 10SM CLR 26/23 A3015 RMK A01
KDLP 191355Z AUTO 08008KT 9SM CLR 27/23 A3014 RMK A01
KDLP 191335Z AUTO 08007KT 9SM CLR 26/22 A3013 RMK A01
KDLP 191315Z AUTO 08008KT 9SM CLR 26/22 A3013 RMK A01
KDLP 191255Z AUTO 07008G14KT 9SM FEW027 FEW033 26/22 A3012 RMK A01
KDLP 191235Z AUTO 07008G13KT 9SM CLR 26/22 A3012 RMK A01
KDLP 191215Z AUTO 08007KT 9SM CLR 26/21 A3011 RMK A01
KDLP 191155Z AUTO 08007G13KT 10SM CLR 26/22 A3011 RMK A01
KDLP 191135Z AUTO 08007KT 310V110 10SM FEW040 26/21 A3011 RMK A01
KDLP 191115Z AUTO 08008KT 050V110 10SM CLR 26/22 A3011 RMK A01
KDLP 191055Z AUTO VRB05G11KT 10SM CLR 26/22 A3011 RMK A01
KDLP 191035Z AUTO 08009KT 10SM CLR 25/22 A3011 RMK A01
KDLP 191015Z AUTO 08008KT 10SM CLR 25/22 A3010 RMK A01
KDLP 190955Z AUTO 08009KT 10SM CLR 25/21 A3010 RMK A01
KDLP 190935Z AUTO 08009KT 10SM CLR 25/22 A3009 RMK A01
KDLP 190915Z AUTO 08011KT 10SM CLR 25/21 A3009 RMK A01
KDLP 190855Z AUTO 08012KT 10SM CLR 25/21 A3010 RMK A01
KDLP 190835Z AUTO 08010KT 10SM CLR 25/22 A3010 RMK A01
KDLP 190815Z AUTO 08009KT 10SM CLR 25/21 A3010 RMK A01
KDLP 190755Z AUTO 07009G15KT 10SM CLR 25/21 A3010 RMK A01
KDLP 190735Z AUTO 08009KT 10SM CLR 25/20 A3011 RMK A01
KDLP 190715Z AUTO 07011KT 10SM CLR 25/20 A3012 RMK A01
KDLP 190655Z AUTO 08010G16KT 10SM CLR 25/20 A3012 RMK A01
KDLP 190635Z AUTO 08010KT 10SM FEW034 SCT042 25/20 A3012 RMK A01
KDLP 190615Z AUTO 09008G16KT 10SM SCT034 SCT042 25/20 A3013 RMK A01
KDLP 190555Z AUTO 08010G16KT 10SM SCT041 25/19 A3014 RMK A01
KDLP 190535Z AUTO 08009G15KT 10SM SCT041 24/19 A3014 RMK A01
KDLP 190515Z AUTO 08013KT 10SM FEW043 24/19 A3015 RMK A01
KDLP 190455Z AUTO 08015KT 10SM FEW040 24/19 A3015 RMK A01
KDLP 190435Z AUTO 08014KT 10SM FEW039 24/19 A3016 RMK A01
KDLP 190415Z AUTO 08014KT 10SM FEW036 24/19 A3016 RMK A01
KDLP 190355Z AUTO 08010G18KT 050V110 10SM CLR 25/19 A3016 RMK A01
KDLP 190335Z AUTO 08011KT 10SM CLR 24/19 A3016 RMK A01
KDLP 190315Z AUTO 08009G16KT 10SM CLR 24/19 A3017 RMK A01
KDLP 190255Z AUTO 08010G16KT 050V110 10SM CLR 24/19 A3017 RMK A01
KDLP 190235Z AUTO 07010KT 10SM CLR 24/19 A3016 RMK A01
KDLP 190215Z AUTO 07012G18KT 10SM CLR 24/18 A3016 RMK A01
KDLP 190155Z AUTO 08011G17KT 10SM CLR 24/18 A3016 RMK A01
KDLP 190135Z AUTO 07010G17KT 10SM FEW042 24/17 A3016 RMK A01
KDLP 190115Z AUTO 08010G18KT 060V120 10SM CLR 24/17 A3015 RMK A01
KDLP 190055Z AUTO 07011KT 10SM SCT040 24/16 A3015 RMK A01
KDLP 190035Z AUTO 08010G17KT 10SM OVC040 24/16 A3015 RMK A01
KDLP 190015Z AUTO 07012G17KT 10SM BKN040 24/16 A3014 RMK A01
KDLP 182355Z AUTO 07013G19KT 10SM SCT041 24/16 A3013 RMK A01
KDLP 182335Z AUTO 07013KT 10SM CLR 24/16 A3013 RMK A01
KDLP 182315Z AUTO 07012G19KT 10SM CLR 25/16 A3013 RMK A01
KDLP 182255Z AUTO 08014G20KT 10SM CLR 24/17 A3013 RMK A01
KDLP 182235Z AUTO 07015KT 10SM CLR 24/17 A3012 RMK A01
KDLP 182215Z AUTO 08015G21KT 10SM CLR 24/17 A3012 RMK A01
KDLP 182155Z AUTO 08017G24KT 10SM CLR 24/17 A3012 RMK A01
KDLP 182135Z AUTO 07014G23KT 10SM CLR 24/18 A3012 RMK A01
KDLP 182115Z AUTO 08016KT 10SM FEW027 FEW032 25/18 A3012 RMK A01